createdAt,value
2023-05-10T00:01:04.199Z,7.89
2023-05-10T00:03:35.332Z,7.91
2023-05-10T00:06:06.236Z,7.90
2023-05-10T00:08:42.216Z,7.96
2023-05-10T00:11:13.041Z,7.92
2023-05-10T00:13:43.979Z,7.82
2023-05-10T00:16:15.049Z,7.81
2023-05-10T00:18:45.955Z,7.83
2023-05-10T00:21:16.779Z,7.78
2023-05-10T00:23:50.195Z,7.85
2023-05-10T00:26:21.287Z,7.83
2023-05-10T00:28:56.104Z,7.86
2023-05-10T00:31:27.052Z,7.77
2023-05-10T00:33:57.984Z,7.74
2023-05-10T00:36:29.006Z,7.73
2023-05-10T00:39:02.431Z,7.61
2023-05-10T00:41:33.760Z,7.60
2023-05-10T00:44:06.006Z,7.55
2023-05-10T00:46:37.478Z,7.49
2023-05-10T00:49:08.536Z,7.32
2023-05-10T00:51:39.289Z,7.39
2023-05-10T00:54:13.426Z,7.37
2023-05-10T00:56:44.988Z,7.43
2023-05-10T00:59:15.901Z,7.44
2023-05-10T01:01:46.807Z,7.51
2023-05-10T01:04:18.669Z,7.51
2023-05-10T01:06:49.378Z,7.42
2023-05-10T01:09:24.723Z,7.34
2023-05-10T01:11:55.565Z,7.41
2023-05-10T01:14:27.316Z,7.39
2023-05-10T01:16:59.056Z,7.44
2023-05-10T01:19:32.235Z,7.42
2023-05-10T01:22:09.764Z,7.45
2023-05-10T01:25:15.423Z,7.48
2023-05-10T01:28:21.914Z,7.51
2023-05-10T01:31:11.064Z,7.42
2023-05-10T01:33:51.499Z,7.31
2023-05-10T01:36:30.917Z,7.35
2023-05-10T01:39:06.371Z,7.33
2023-05-10T01:41:40.512Z,7.35
2023-05-10T01:44:20.337Z,7.26
2023-05-10T01:46:57.583Z,7.30
2023-05-10T01:49:35.570Z,7.27
2023-05-10T01:52:12.902Z,7.31
2023-05-10T01:54:48.919Z,7.27
2023-05-10T01:57:23.438Z,7.16
2023-05-10T01:59:56.345Z,6.97
2023-05-10T02:02:29.067Z,6.93
2023-05-10T02:05:03.689Z,6.92
2023-05-10T02:07:37.491Z,6.94
2023-05-10T02:10:10.297Z,6.95
2023-05-10T02:12:45.743Z,6.99
2023-05-10T02:15:20.640Z,7.00
2023-05-10T02:17:52.053Z,7.05
2023-05-10T02:20:27.659Z,7.04
2023-05-10T02:22:59.990Z,7.07
2023-05-10T02:25:32.926Z,7.04
2023-05-10T02:28:06.027Z,6.95
2023-05-10T02:30:37.880Z,6.76
2023-05-10T02:33:09.512Z,6.72
2023-05-10T02:35:42.945Z,6.70
2023-05-10T02:38:15.856Z,6.72
2023-05-10T02:40:47.563Z,6.73
2023-05-10T02:43:21.407Z,6.65
2023-05-10T02:45:52.539Z,6.72
2023-05-10T02:48:23.444Z,6.67
2023-05-10T02:51:00.198Z,6.54
2023-05-10T02:53:36.056Z,6.58
2023-05-10T02:56:13.467Z,6.56
2023-05-10T02:58:44.392Z,6.64
2023-05-10T03:01:15.253Z,6.63
2023-05-10T03:03:46.101Z,6.55
2023-05-10T03:06:19.838Z,6.43
2023-05-10T03:08:50.924Z,6.47
2023-05-10T03:11:33.021Z,6.48
2023-05-10T03:14:17.165Z,6.50
2023-05-10T03:16:51.732Z,6.54
2023-05-10T03:19:28.944Z,6.56
2023-05-10T03:22:08.294Z,6.45
2023-05-10T03:24:43.591Z,6.30
2023-05-10T03:27:15.893Z,6.11
2023-05-10T03:29:48.730Z,6.11
2023-05-10T03:32:19.732Z,6.09
2023-05-10T03:34:50.560Z,6.18
2023-05-10T03:37:23.929Z,6.18
2023-05-10T03:39:54.709Z,6.27
2023-05-10T03:42:25.498Z,6.31
2023-05-10T03:44:56.242Z,6.22
2023-05-10T03:47:27.298Z,6.12
2023-05-10T03:49:58.267Z,6.18
2023-05-10T03:52:31.856Z,6.21
2023-05-10T03:55:04.256Z,6.29
2023-05-10T03:57:35.140Z,6.29
2023-05-10T04:00:06.684Z,6.26
2023-05-10T04:02:46.530Z,6.25
2023-05-10T04:05:22.551Z,6.34
2023-05-10T04:07:58.663Z,6.45
2023-05-10T04:10:29.467Z,6.52
2023-05-10T04:13:00.210Z,6.51
2023-05-10T04:15:30.959Z,6.66
2023-05-10T04:18:01.890Z,6.61
2023-05-10T04:20:32.911Z,6.44
2023-05-10T04:23:06.260Z,6.51
2023-05-10T04:25:39.181Z,6.58
2023-05-10T04:28:10.058Z,6.69
2023-05-10T04:30:41.796Z,6.81
2023-05-10T04:33:13.090Z,6.94
2023-05-10T04:35:43.962Z,7.07
2023-05-10T04:38:17.339Z,7.19
2023-05-10T04:40:48.068Z,7.30
2023-05-10T04:43:18.910Z,7.45
2023-05-10T04:45:49.876Z,7.57
2023-05-10T04:48:20.692Z,7.69
2023-05-10T04:50:51.633Z,7.81
2023-05-10T04:53:25.081Z,7.91
2023-05-10T04:55:56.004Z,8.00
2023-05-10T04:58:27.303Z,8.08
2023-05-10T05:00:58.148Z,8.16
2023-05-10T05:03:29.002Z,8.24
2023-05-10T05:06:01.028Z,8.34
2023-05-10T05:08:34.831Z,8.45
2023-05-10T05:11:05.791Z,8.55
2023-05-10T05:13:36.527Z,8.66
2023-05-10T05:16:08.176Z,8.78
2023-05-10T05:18:39.093Z,8.91
2023-05-10T05:21:18.210Z,9.01
2023-05-10T05:23:51.636Z,9.10
2023-05-10T05:26:22.619Z,9.17
2023-05-10T05:28:55.851Z,9.22
2023-05-10T05:31:26.689Z,9.28
2023-05-10T05:33:57.361Z,9.33
2023-05-10T05:36:28.097Z,9.40
2023-05-10T05:39:01.441Z,9.45
2023-05-10T05:41:32.331Z,9.49
2023-05-10T05:44:03.297Z,9.50
2023-05-10T05:46:33.924Z,9.53
2023-05-10T05:49:04.570Z,9.55
2023-05-10T05:51:36.857Z,9.62
2023-05-10T05:54:10.256Z,9.69
2023-05-10T05:56:41.058Z,9.76
2023-05-10T05:59:11.762Z,9.85
2023-05-10T06:01:42.544Z,9.93
2023-05-10T06:04:14.109Z,9.99
2023-05-10T06:06:44.897Z,10.04
2023-05-10T06:09:18.458Z,10.09
2023-05-10T06:11:49.112Z,10.15
2023-05-10T06:14:19.923Z,10.19
2023-05-10T06:16:51.521Z,10.23
2023-05-10T06:19:22.263Z,10.27
2023-05-10T06:21:53.895Z,10.32
2023-05-10T06:24:28.510Z,10.37
2023-05-10T06:27:01.489Z,10.42
2023-05-10T06:29:32.542Z,10.46
2023-05-10T06:32:03.672Z,10.53
2023-05-10T06:34:34.590Z,10.64
2023-05-10T06:37:05.384Z,10.73
2023-05-10T06:39:39.190Z,10.89
2023-05-10T06:42:09.925Z,11.12
2023-05-10T06:44:40.751Z,11.34
2023-05-10T06:47:11.559Z,11.56
2023-05-10T06:49:42.394Z,11.80
2023-05-10T06:52:13.576Z,12.20
2023-05-10T06:54:47.083Z,12.68
2023-05-10T06:57:30.468Z,13.18
2023-05-10T07:00:05.335Z,13.60
2023-05-10T07:02:37.696Z,14.02
2023-05-10T07:05:09.282Z,14.55
2023-05-10T07:07:40.113Z,15.23
2023-05-10T07:10:14.718Z,15.97
2023-05-10T07:12:45.710Z,16.55
2023-05-10T07:15:17.639Z,16.89
2023-05-10T07:17:49.608Z,17.21
2023-05-10T07:20:20.781Z,17.45
2023-05-10T07:22:51.486Z,17.47
2023-05-10T07:25:25.567Z,17.36
2023-05-10T07:27:56.434Z,17.11
2023-05-10T07:30:27.819Z,16.85
2023-05-10T07:32:58.573Z,16.56
2023-05-10T07:35:29.588Z,16.29
2023-05-10T07:38:00.259Z,16.05
2023-05-10T07:40:34.018Z,16.10
2023-05-10T07:43:05.125Z,16.32
2023-05-10T07:45:36.493Z,16.65
2023-05-10T07:48:07.735Z,17.02
2023-05-10T07:50:38.687Z,17.22
2023-05-10T07:53:09.445Z,17.28
2023-05-10T07:55:43.301Z,17.24
2023-05-10T07:58:14.026Z,17.15
2023-05-10T08:00:44.864Z,17.01
2023-05-10T08:03:15.828Z,16.99
2023-05-10T08:05:46.961Z,17.17
2023-05-10T08:08:17.645Z,17.54
2023-05-10T08:10:51.297Z,18.02
2023-05-10T08:13:22.024Z,18.36
2023-05-10T08:15:54.407Z,18.38
2023-05-10T08:18:25.292Z,18.25
2023-05-10T08:20:56.129Z,18.14
2023-05-10T08:23:27.301Z,18.04
2023-05-10T08:26:00.832Z,17.90
2023-05-10T08:28:31.771Z,17.75
2023-05-10T08:31:02.517Z,17.61
2023-05-10T08:33:33.387Z,17.45
2023-05-10T08:36:04.160Z,17.23
2023-05-10T08:38:35.029Z,17.10
2023-05-10T08:41:10.230Z,17.09
2023-05-10T08:43:42.945Z,17.09
2023-05-10T08:46:14.759Z,17.19
2023-05-10T08:48:46.673Z,17.18
2023-05-10T08:51:19.053Z,17.14
2023-05-10T08:53:50.480Z,17.42
2023-05-10T08:56:25.046Z,17.68
2023-05-10T08:58:56.399Z,17.98
2023-05-10T09:01:27.804Z,18.21
2023-05-10T09:03:59.187Z,18.46
2023-05-10T09:06:30.265Z,18.77
2023-05-10T09:09:01.318Z,18.98
2023-05-10T09:11:35.295Z,19.29
2023-05-10T09:14:06.713Z,19.60
2023-05-10T09:16:37.439Z,19.88
2023-05-10T09:19:08.562Z,20.12
2023-05-10T09:21:40.861Z,20.26
2023-05-10T09:24:12.638Z,20.38
2023-05-10T09:26:53.147Z,20.41
2023-05-10T09:29:23.804Z,20.36
2023-05-10T09:31:56.142Z,20.20
2023-05-10T09:34:36.129Z,20.10
2023-05-10T09:37:07.614Z,20.05
2023-05-10T09:39:40.016Z,20.11
2023-05-10T09:42:14.558Z,20.21
2023-05-10T09:44:47.574Z,20.36
2023-05-10T09:47:22.078Z,20.52
2023-05-10T09:49:54.414Z,20.55
2023-05-10T09:52:25.175Z,20.48
2023-05-10T09:54:58.537Z,20.42
2023-05-10T09:57:33.839Z,20.42
2023-05-10T10:00:07.214Z,20.52
2023-05-10T10:02:45.045Z,20.60
2023-05-10T10:05:16.519Z,20.76
2023-05-10T10:07:47.557Z,20.91
2023-05-10T10:10:18.377Z,20.97
2023-05-10T10:12:53.047Z,20.99
2023-05-10T10:15:24.879Z,21.07
2023-05-10T10:17:57.195Z,21.15
2023-05-10T10:20:28.361Z,21.16
2023-05-10T10:22:59.096Z,21.21
2023-05-10T10:25:30.215Z,21.25
2023-05-10T10:28:29.213Z,21.27
2023-05-10T10:31:05.565Z,21.23
2023-05-10T10:33:55.698Z,21.19
2023-05-10T10:36:28.401Z,21.16
2023-05-10T10:39:05.622Z,21.22
2023-05-10T10:41:38.434Z,21.33
2023-05-10T10:44:33.266Z,21.49
2023-05-10T10:47:10.313Z,21.66
2023-05-10T10:49:52.971Z,21.85
2023-05-10T10:52:34.317Z,21.96
2023-05-10T10:55:08.531Z,22.07
2023-05-10T10:57:48.800Z,22.06
2023-05-10T11:00:33.277Z,22.11
2023-05-10T11:03:08.652Z,22.10
2023-05-10T11:05:41.945Z,22.01
2023-05-10T11:08:18.494Z,21.92
2023-05-10T11:11:08.437Z,21.87
2023-05-10T11:13:43.212Z,21.67
2023-05-10T11:16:25.100Z,21.49
2023-05-10T11:19:03.380Z,21.28
2023-05-10T11:21:34.990Z,21.10
2023-05-10T11:24:16.843Z,20.87
2023-05-10T11:26:47.628Z,20.68
2023-05-10T11:29:18.351Z,20.46
2023-05-10T11:31:52.712Z,20.27
2023-05-10T11:37:28.388Z,19.73
2023-05-10T11:39:59.397Z,19.58
2023-05-10T11:42:31.678Z,19.41
2023-05-10T11:45:02.970Z,19.17
2023-05-10T11:47:42.672Z,18.89
2023-05-10T11:50:16.008Z,18.68
2023-05-10T11:52:46.909Z,18.49
2023-05-10T11:55:18.054Z,18.37
2023-05-10T11:57:50.203Z,18.25
2023-05-10T12:00:21.367Z,18.14
2023-05-10T12:02:55.118Z,18.11
2023-05-10T12:05:26.434Z,17.96
2023-05-10T12:07:57.208Z,17.92
2023-05-10T12:10:31.198Z,17.86
2023-05-10T12:13:01.882Z,17.69
2023-05-10T12:15:32.702Z,17.49
2023-05-10T12:18:06.805Z,17.11
2023-05-10T12:20:37.621Z,17.20
2023-05-10T12:23:08.819Z,17.07
2023-05-10T12:25:41.582Z,16.95
2023-05-10T12:28:13.714Z,16.85
2023-05-10T12:30:44.936Z,16.80
2023-05-10T12:33:19.545Z,16.76
2023-05-10T12:35:52.263Z,16.73
2023-05-10T12:38:31.104Z,16.55
2023-05-10T12:41:03.930Z,16.76
2023-05-10T12:43:35.219Z,16.74
2023-05-10T12:46:10.125Z,16.79
2023-05-10T12:48:44.863Z,16.80
2023-05-10T12:51:18.441Z,16.78
2023-05-10T12:53:49.767Z,16.74
2023-05-10T12:56:20.514Z,16.66
2023-05-10T12:58:51.554Z,16.60
2023-05-10T13:01:22.453Z,16.51
2023-05-10T13:03:55.770Z,16.45
2023-05-10T13:06:26.689Z,16.38
2023-05-10T13:08:58.889Z,16.32
2023-05-10T13:11:29.740Z,16.29
2023-05-10T13:14:00.430Z,16.28
2023-05-10T13:16:31.915Z,16.28
2023-05-10T13:19:05.441Z,16.29
2023-05-10T13:21:36.370Z,16.31
2023-05-10T13:24:07.380Z,16.33
2023-05-10T13:26:38.193Z,16.32
2023-05-10T13:29:08.979Z,16.29
2023-05-10T13:31:40.036Z,16.24
2023-05-10T13:34:13.496Z,16.22
2023-05-10T13:36:44.273Z,16.22
2023-05-10T13:39:15.055Z,16.22
2023-05-10T13:41:45.916Z,16.25
2023-05-10T13:44:17.541Z,16.26
2023-05-10T13:46:48.578Z,16.28
2023-05-10T13:49:22.824Z,16.33
2023-05-10T13:51:53.792Z,16.36
2023-05-10T13:54:30.774Z,16.33
2023-05-10T13:57:01.558Z,16.28
2023-05-10T13:59:33.346Z,16.25
2023-05-10T14:02:04.531Z,16.19
2023-05-10T14:04:38.461Z,16.15
2023-05-10T14:07:10.358Z,16.04
2023-05-10T14:09:44.354Z,15.95
2023-05-10T14:12:15.854Z,15.89
2023-05-10T14:14:46.633Z,15.81
2023-05-10T14:17:17.486Z,15.78
2023-05-10T14:19:50.775Z,15.79
2023-05-10T14:22:21.892Z,15.77
2023-05-10T14:24:52.653Z,15.78
2023-05-10T14:27:23.480Z,15.78
2023-05-10T14:29:54.546Z,15.77
2023-05-10T14:32:25.420Z,15.77
2023-05-10T14:34:58.848Z,15.76
2023-05-10T14:37:29.580Z,15.74
2023-05-10T14:40:00.328Z,15.74
2023-05-10T14:42:31.078Z,15.76
2023-05-10T14:45:01.815Z,15.76
2023-05-10T14:47:36.185Z,15.76
2023-05-10T14:50:12.207Z,15.75
2023-05-10T14:52:47.634Z,15.74
2023-05-10T14:55:19.050Z,15.75
2023-05-10T14:57:51.898Z,15.74
2023-05-10T15:00:23.731Z,15.72
2023-05-10T15:02:55.084Z,15.70
2023-05-10T15:05:29.088Z,15.69
2023-05-10T15:07:59.969Z,15.69
2023-05-10T15:10:32.081Z,15.69
2023-05-10T15:13:04.933Z,15.69
2023-05-10T15:15:35.663Z,15.71
2023-05-10T15:18:06.982Z,15.71
2023-05-10T15:20:40.419Z,15.72
2023-05-10T15:23:11.254Z,15.65
2023-05-10T15:25:42.120Z,15.54
2023-05-10T15:28:12.836Z,15.46
2023-05-10T15:30:43.546Z,15.35
2023-05-10T15:33:14.444Z,15.24
2023-05-10T15:35:47.934Z,15.16
2023-05-10T15:38:19.047Z,15.09
2023-05-10T15:40:49.884Z,15.01
2023-05-10T15:43:20.758Z,14.94
2023-05-10T15:45:51.767Z,14.91
2023-05-10T15:48:22.618Z,14.86
2023-05-10T15:50:56.187Z,14.68
2023-05-10T15:53:27.284Z,14.77
2023-05-10T15:55:58.286Z,14.74
2023-05-10T15:58:29.134Z,14.69
2023-05-10T16:01:00.351Z,14.63
2023-05-10T16:03:31.462Z,14.57
2023-05-10T16:06:04.948Z,14.49
2023-05-10T16:08:36.212Z,14.47
2023-05-10T16:11:07.201Z,14.44
2023-05-10T16:13:38.468Z,14.36
2023-05-10T16:16:10.187Z,14.40
2023-05-10T16:18:41.543Z,14.36
2023-05-10T16:21:15.020Z,14.34
2023-05-10T16:23:46.823Z,14.33
2023-05-10T16:26:17.826Z,14.33
2023-05-10T16:28:48.699Z,14.23
2023-05-10T16:31:20.376Z,14.19
2023-05-10T16:33:51.301Z,14.16
2023-05-10T16:36:24.610Z,14.11
2023-05-10T16:38:55.778Z,14.09
2023-05-10T16:41:26.755Z,14.09
2023-05-10T16:43:58.064Z,14.07
2023-05-10T16:46:28.893Z,14.04
2023-05-10T16:49:00.500Z,14.01
2023-05-10T16:51:33.831Z,13.97
2023-05-10T16:54:04.592Z,13.95
2023-05-10T16:56:35.289Z,13.88
2023-05-10T16:59:06.211Z,13.81
2023-05-10T17:01:37.478Z,13.71
2023-05-10T17:04:08.573Z,13.72
2023-05-10T17:06:42.108Z,13.68
2023-05-10T17:09:13.074Z,13.64
2023-05-10T17:11:43.845Z,13.60
2023-05-10T17:14:14.719Z,13.56
2023-05-10T17:16:45.665Z,13.53
2023-05-10T17:19:17.137Z,13.50
2023-05-10T17:21:50.580Z,13.43
2023-05-10T17:24:21.530Z,13.37
2023-05-10T17:26:52.398Z,13.32
2023-05-10T17:29:23.374Z,13.26
2023-05-10T17:31:54.117Z,13.23
2023-05-10T17:34:24.918Z,13.09
2023-05-10T17:36:58.377Z,12.56
2023-05-10T17:39:29.201Z,11.69
2023-05-10T17:42:00.048Z,10.97
2023-05-10T17:44:30.807Z,10.36
2023-05-10T17:47:01.639Z,10.04
2023-05-10T17:49:32.494Z,9.77
2023-05-10T17:52:06.017Z,9.48
2023-05-10T17:54:36.948Z,9.29
2023-05-10T17:57:08.016Z,9.17
2023-05-10T17:59:39.095Z,9.11
2023-05-10T18:02:10.295Z,9.05
2023-05-10T18:04:43.217Z,9.02
2023-05-10T18:07:16.867Z,9.08
2023-05-10T18:09:47.648Z,9.14
2023-05-10T18:12:18.309Z,9.16
2023-05-10T18:14:49.032Z,9.15
2023-05-10T18:17:19.820Z,9.21
2023-05-10T18:19:50.577Z,9.45
2023-05-10T18:22:24.077Z,9.71
2023-05-10T18:24:54.867Z,9.98
2023-05-10T18:27:25.777Z,10.22
2023-05-10T18:29:56.724Z,10.44
2023-05-10T18:32:28.346Z,10.68
2023-05-10T18:34:59.530Z,10.84
2023-05-10T18:37:33.694Z,11.03
2023-05-10T18:40:05.389Z,11.19
2023-05-10T18:42:36.450Z,11.29
2023-05-10T18:45:08.227Z,11.41
2023-05-10T18:47:39.095Z,11.48
2023-05-10T18:50:11.429Z,11.60
2023-05-10T18:52:44.931Z,11.66
2023-05-10T18:55:17.408Z,11.72
2023-05-10T18:57:48.375Z,11.76
2023-05-10T19:00:20.694Z,11.78
2023-05-10T19:02:51.543Z,11.81
2023-05-10T19:05:27.555Z,11.82
2023-05-10T19:08:01.069Z,11.85
2023-05-10T19:10:31.945Z,11.86
2023-05-10T19:13:02.776Z,11.86
2023-05-10T19:15:33.694Z,11.86
2023-05-10T19:18:04.869Z,11.70
2023-05-10T19:20:37.822Z,11.67
2023-05-10T19:23:11.942Z,11.51
2023-05-10T19:25:42.874Z,11.47
2023-05-10T19:28:13.732Z,11.32
2023-05-10T19:30:44.681Z,11.32
2023-05-10T19:33:15.564Z,11.32
2023-05-10T19:35:46.489Z,11.34
2023-05-10T19:38:20.281Z,11.34
2023-05-10T19:40:51.098Z,11.25
2023-05-10T19:43:21.897Z,11.24
2023-05-10T19:45:52.909Z,11.15
2023-05-10T19:48:23.724Z,11.15
2023-05-10T19:50:54.595Z,11.05
2023-05-10T19:53:28.128Z,11.07
2023-05-10T19:55:59.398Z,11.02
2023-05-10T19:58:30.137Z,11.04
2023-05-10T20:01:01.115Z,10.96
2023-05-10T20:03:33.885Z,10.97
2023-05-10T20:06:05.007Z,10.90
2023-05-10T20:08:38.297Z,10.89
2023-05-10T20:11:09.175Z,10.86
2023-05-10T20:13:39.932Z,10.88
2023-05-10T20:16:10.825Z,10.85
2023-05-10T20:18:41.933Z,10.86
2023-05-10T20:21:12.782Z,10.83
2023-05-10T20:23:46.908Z,10.82
2023-05-10T20:26:17.925Z,10.80
2023-05-10T20:28:48.692Z,10.79
2023-05-10T20:31:19.623Z,10.73
2023-05-10T20:33:50.427Z,10.70
2023-05-10T20:36:23.207Z,10.21
2023-05-10T20:38:58.877Z,9.46
2023-05-10T20:41:30.392Z,8.79
2023-05-10T20:44:01.232Z,8.34
2023-05-10T20:46:32.302Z,8.05
2023-05-10T20:49:04.220Z,7.91
2023-05-10T20:51:35.369Z,7.86
2023-05-10T20:54:08.784Z,7.88
2023-05-10T20:56:39.603Z,7.91
2023-05-10T20:59:10.354Z,7.88
2023-05-10T21:01:41.232Z,7.85
2023-05-10T21:04:12.153Z,7.86
2023-05-10T21:06:43.049Z,7.93
2023-05-10T21:09:17.000Z,8.04
2023-05-10T21:11:47.990Z,8.14
2023-05-10T21:14:19.391Z,8.19
2023-05-10T21:16:51.465Z,8.19
2023-05-10T21:19:25.571Z,8.22
2023-05-10T21:21:59.394Z,8.22
2023-05-10T21:24:35.311Z,8.19
2023-05-10T21:27:07.874Z,8.21
2023-05-10T21:29:38.813Z,8.19
2023-05-10T21:32:09.944Z,8.17
2023-05-10T21:34:40.793Z,8.14
2023-05-10T21:37:11.626Z,8.12
2023-05-10T21:39:45.070Z,8.14
2023-05-10T21:42:15.894Z,8.10
2023-05-10T21:44:46.732Z,8.09
2023-05-10T21:47:17.571Z,8.08
2023-05-10T21:49:48.517Z,8.06
2023-05-10T21:52:19.337Z,8.07
2023-05-10T21:54:52.753Z,8.05
2023-05-10T21:57:23.735Z,8.04
2023-05-10T21:59:54.439Z,8.02
2023-05-10T22:02:25.526Z,8.00
2023-05-10T22:04:56.580Z,7.98
2023-05-10T22:07:27.496Z,7.92
2023-05-10T22:10:00.852Z,7.90
2023-05-10T22:12:32.223Z,7.88
2023-05-10T22:17:37.238Z,7.81
2023-05-10T22:20:09.317Z,7.79
2023-05-10T22:22:40.123Z,7.76
2023-05-10T22:25:13.743Z,7.73
2023-05-10T22:27:44.582Z,7.70
2023-05-10T22:30:15.983Z,7.66
2023-05-10T22:32:47.029Z,7.65
2023-05-10T22:35:17.872Z,7.62
2023-05-10T22:37:48.749Z,7.77
2023-05-10T22:40:22.568Z,8.01
2023-05-10T22:42:53.335Z,8.03
2023-05-10T22:45:24.431Z,7.81
2023-05-10T22:47:55.390Z,7.54
2023-05-10T22:50:26.308Z,7.38
2023-05-10T22:52:57.089Z,7.34
2023-05-10T22:55:30.531Z,7.33
2023-05-10T22:58:01.532Z,7.32
2023-05-10T23:00:32.346Z,7.29
2023-05-10T23:03:03.360Z,7.24
2023-05-10T23:05:34.197Z,7.37
2023-05-10T23:08:05.022Z,7.58
2023-05-10T23:10:38.821Z,7.64
2023-05-10T23:13:09.756Z,7.50
2023-05-10T23:15:40.573Z,7.50
2023-05-10T23:18:11.501Z,7.62
2023-05-10T23:20:44.146Z,7.72
2023-05-10T23:23:14.978Z,7.93
2023-05-10T23:25:48.641Z,8.11
2023-05-10T23:28:19.671Z,8.25
2023-05-10T23:30:50.445Z,8.40
2023-05-10T23:33:21.336Z,8.50
2023-05-10T23:35:52.102Z,8.61
2023-05-10T23:38:23.125Z,8.68
2023-05-10T23:40:56.527Z,8.75
2023-05-10T23:43:27.379Z,8.80
2023-05-10T23:45:58.818Z,8.84
2023-05-10T23:48:29.684Z,8.87
2023-05-10T23:51:00.416Z,8.89
2023-05-10T23:53:31.467Z,8.89
2023-05-10T23:56:05.233Z,8.87
2023-05-10T23:58:36.085Z,8.86
